sensor_id;sensor_type;location;lat;lon;timestamp;P1;durP1;ratioP1;P2;durP2;ratioP2
69502;SDS011;56704;54.242;12.442;2024-01-30T00:00:23;7.28;;;2.30;;
69502;SDS011;56704;54.242;12.442;2024-01-30T00:02:50;6.90;;;2.43;;
69502;SDS011;56704;54.242;12.442;2024-01-30T00:05:17;5.95;;;2.17;;
69502;SDS011;56704;54.242;12.442;2024-01-30T00:07:45;7.03;;;2.70;;
69502;SDS011;56704;54.242;12.442;2024-01-30T00:10:11;7.80;;;1.98;;
69502;SDS011;56704;54.242;12.442;2024-01-30T00:12:38;5.57;;;1.70;;
69502;SDS011;56704;54.242;12.442;2024-01-30T00:15:05;7.40;;;2.50;;
69502;SDS011;56704;54.242;12.442;2024-01-30T00:17:34;6.82;;;2.55;;
69502;SDS011;56704;54.242;12.442;2024-01-30T00:20:01;9.00;;;2.50;;
69502;SDS011;56704;54.242;12.442;2024-01-30T00:22:30;6.05;;;2.28;;
69502;SDS011;56704;54.242;12.442;2024-01-30T00:24:58;5.05;;;2.20;;
69502;SDS011;56704;54.242;12.442;2024-01-30T00:27:25;7.17;;;2.50;;
69502;SDS011;56704;54.242;12.442;2024-01-30T00:29:52;8.45;;;2.55;;
69502;SDS011;56704;54.242;12.442;2024-01-30T00:32:19;7.55;;;2.63;;
69502;SDS011;56704;54.242;12.442;2024-01-30T00:34:45;5.30;;;2.05;;
69502;SDS011;56704;54.242;12.442;2024-01-30T00:37:12;6.07;;;2.20;;
69502;SDS011;56704;54.242;12.442;2024-01-30T00:39:38;5.80;;;2.03;;
69502;SDS011;56704;54.242;12.442;2024-01-30T00:42:06;7.43;;;2.33;;
69502;SDS011;56704;54.242;12.442;2024-01-30T00:44:34;5.93;;;2.22;;
69502;SDS011;56704;54.242;12.442;2024-01-30T00:47:02;6.25;;;2.50;;
69502;SDS011;56704;54.242;12.442;2024-01-30T00:49:29;6.13;;;2.03;;
69502;SDS011;56704;54.242;12.442;2024-01-30T00:51:55;5.93;;;2.53;;
69502;SDS011;56704;54.242;12.442;2024-01-30T00:54:22;7.20;;;2.60;;
69502;SDS011;56704;54.242;12.442;2024-01-30T00:56:48;7.18;;;2.80;;
69502;SDS011;56704;54.242;12.442;2024-01-30T00:59:16;8.95;;;2.35;;
69502;SDS011;56704;54.242;12.442;2024-01-30T01:01:43;6.22;;;2.35;;
69502;SDS011;56704;54.242;12.442;2024-01-30T01:04:09;7.63;;;2.43;;
69502;SDS011;56704;54.242;12.442;2024-01-30T01:06:36;6.85;;;2.67;;
69502;SDS011;56704;54.242;12.442;2024-01-30T01:09:03;5.22;;;2.30;;
69502;SDS011;56704;54.242;12.442;2024-01-30T01:11:29;6.28;;;2.25;;
69502;SDS011;56704;54.242;12.442;2024-01-30T01:13:56;5.57;;;2.15;;
69502;SDS011;56704;54.242;12.442;2024-01-30T01:16:24;4.90;;;2.00;;
69502;SDS011;56704;54.242;12.442;2024-01-30T01:18:51;7.55;;;2.15;;
69502;SDS011;56704;54.242;12.442;2024-01-30T01:21:17;6.80;;;2.40;;
69502;SDS011;56704;54.242;12.442;2024-01-30T01:23:44;6.53;;;2.03;;
69502;SDS011;56704;54.242;12.442;2024-01-30T01:26:10;6.22;;;1.85;;
69502;SDS011;56704;54.242;12.442;2024-01-30T01:28:39;6.27;;;2.20;;
69502;SDS011;56704;54.242;12.442;2024-01-30T01:31:05;6.68;;;1.80;;
69502;SDS011;56704;54.242;12.442;2024-01-30T01:33:33;6.68;;;2.38;;
69502;SDS011;56704;54.242;12.442;2024-01-30T01:36:02;5.32;;;2.00;;
69502;SDS011;56704;54.242;12.442;2024-01-30T01:38:29;7.07;;;2.10;;
69502;SDS011;56704;54.242;12.442;2024-01-30T01:40:55;7.17;;;2.20;;
69502;SDS011;56704;54.242;12.442;2024-01-30T01:43:22;7.60;;;2.50;;
69502;SDS011;56704;54.242;12.442;2024-01-30T01:45:48;6.15;;;2.40;;
69502;SDS011;56704;54.242;12.442;2024-01-30T01:48:15;6.13;;;2.20;;
69502;SDS011;56704;54.242;12.442;2024-01-30T01:50:43;4.57;;;1.80;;
69502;SDS011;56704;54.242;12.442;2024-01-30T01:53:10;6.87;;;2.00;;
69502;SDS011;56704;54.242;12.442;2024-01-30T01:55:36;6.20;;;2.15;;
69502;SDS011;56704;54.242;12.442;2024-01-30T01:58:03;6.30;;;2.00;;
69502;SDS011;56704;54.242;12.442;2024-01-30T02:00:31;6.35;;;2.17;;
69502;SDS011;56704;54.242;12.442;2024-01-30T02:02:57;6.60;;;2.17;;
69502;SDS011;56704;54.242;12.442;2024-01-30T02:05:26;6.63;;;2.30;;
69502;SDS011;56704;54.242;12.442;2024-01-30T02:07:54;5.63;;;2.10;;
69502;SDS011;56704;54.242;12.442;2024-01-30T02:10:22;6.03;;;2.00;;
69502;SDS011;56704;54.242;12.442;2024-01-30T02:12:48;6.50;;;2.08;;
69502;SDS011;56704;54.242;12.442;2024-01-30T02:15:15;5.60;;;2.00;;
69502;SDS011;56704;54.242;12.442;2024-01-30T02:17:41;6.23;;;2.00;;
69502;SDS011;56704;54.242;12.442;2024-01-30T02:20:08;7.35;;;2.08;;
69502;SDS011;56704;54.242;12.442;2024-01-30T02:22:37;7.22;;;2.55;;
69502;SDS011;56704;54.242;12.442;2024-01-30T02:25:06;6.40;;;2.30;;
69502;SDS011;56704;54.242;12.442;2024-01-30T02:27:34;6.93;;;2.47;;
69502;SDS011;56704;54.242;12.442;2024-01-30T02:30:00;7.37;;;2.33;;
69502;SDS011;56704;54.242;12.442;2024-01-30T02:32:27;5.97;;;2.05;;
69502;SDS011;56704;54.242;12.442;2024-01-30T02:34:53;7.15;;;2.42;;
69502;SDS011;56704;54.242;12.442;2024-01-30T02:37:20;7.78;;;2.30;;
69502;SDS011;56704;54.242;12.442;2024-01-30T02:39:48;6.32;;;2.50;;
69502;SDS011;56704;54.242;12.442;2024-01-30T02:42:15;6.30;;;2.20;;
69502;SDS011;56704;54.242;12.442;2024-01-30T02:44:41;7.07;;;2.50;;
69502;SDS011;56704;54.242;12.442;2024-01-30T02:47:08;7.78;;;2.40;;
69502;SDS011;56704;54.242;12.442;2024-01-30T02:49:34;7.80;;;2.20;;
69502;SDS011;56704;54.242;12.442;2024-01-30T02:52:01;6.20;;;2.25;;
69502;SDS011;56704;54.242;12.442;2024-01-30T02:54:27;7.33;;;2.33;;
69502;SDS011;56704;54.242;12.442;2024-01-30T02:56:57;8.85;;;2.90;;
69502;SDS011;56704;54.242;12.442;2024-01-30T02:59:24;6.63;;;2.55;;
69502;SDS011;56704;54.242;12.442;2024-01-30T03:01:50;7.18;;;2.40;;
69502;SDS011;56704;54.242;12.442;2024-01-30T03:04:17;6.18;;;2.38;;
69502;SDS011;56704;54.242;12.442;2024-01-30T03:06:46;6.57;;;2.50;;
69502;SDS011;56704;54.242;12.442;2024-01-30T03:09:13;7.38;;;2.58;;
69502;SDS011;56704;54.242;12.442;2024-01-30T03:11:41;6.97;;;2.38;;
69502;SDS011;56704;54.242;12.442;2024-01-30T03:14:09;6.38;;;2.35;;
69502;SDS011;56704;54.242;12.442;2024-01-30T03:16:36;5.00;;;2.00;;
69502;SDS011;56704;54.242;12.442;2024-01-30T03:19:03;7.00;;;2.27;;
69502;SDS011;56704;54.242;12.442;2024-01-30T03:21:30;6.35;;;2.13;;
69502;SDS011;56704;54.242;12.442;2024-01-30T03:23:56;6.28;;;2.25;;
69502;SDS011;56704;54.242;12.442;2024-01-30T03:26:23;8.00;;;2.53;;
69502;SDS011;56704;54.242;12.442;2024-01-30T03:28:50;6.75;;;2.80;;
69502;SDS011;56704;54.242;12.442;2024-01-30T03:31:18;7.93;;;2.80;;
69502;SDS011;56704;54.242;12.442;2024-01-30T03:33:44;6.88;;;2.35;;
69502;SDS011;56704;54.242;12.442;2024-01-30T03:36:11;6.47;;;2.90;;
69502;SDS011;56704;54.242;12.442;2024-01-30T03:38:37;5.75;;;2.20;;
69502;SDS011;56704;54.242;12.442;2024-01-30T03:41:07;7.85;;;2.75;;
69502;SDS011;56704;54.242;12.442;2024-01-30T03:43:34;6.80;;;2.70;;
69502;SDS011;56704;54.242;12.442;2024-01-30T03:46:00;6.03;;;2.58;;
69502;SDS011;56704;54.242;12.442;2024-01-30T03:48:28;6.85;;;2.72;;
69502;SDS011;56704;54.242;12.442;2024-01-30T03:50:55;5.65;;;2.17;;
69502;SDS011;56704;54.242;12.442;2024-01-30T03:53:22;8.20;;;3.00;;
69502;SDS011;56704;54.242;12.442;2024-01-30T03:55:48;6.00;;;2.70;;
69502;SDS011;56704;54.242;12.442;2024-01-30T03:58:15;8.13;;;2.95;;
69502;SDS011;56704;54.242;12.442;2024-01-30T04:00:42;9.27;;;2.63;;
69502;SDS011;56704;54.242;12.442;2024-01-30T04:03:08;6.50;;;2.53;;
69502;SDS011;56704;54.242;12.442;2024-01-30T04:05:36;7.70;;;3.25;;
69502;SDS011;56704;54.242;12.442;2024-01-30T04:08:04;7.80;;;2.90;;
69502;SDS011;56704;54.242;12.442;2024-01-30T04:10:31;6.78;;;2.95;;
69502;SDS011;56704;54.242;12.442;2024-01-30T04:12:58;7.07;;;3.00;;
69502;SDS011;56704;54.242;12.442;2024-01-30T04:15:25;7.22;;;2.55;;
69502;SDS011;56704;54.242;12.442;2024-01-30T04:17:51;7.53;;;2.55;;
69502;SDS011;56704;54.242;12.442;2024-01-30T04:20:18;8.30;;;2.67;;
69502;SDS011;56704;54.242;12.442;2024-01-30T04:22:46;7.28;;;3.08;;
69502;SDS011;56704;54.242;12.442;2024-01-30T04:25:13;7.35;;;2.80;;
69502;SDS011;56704;54.242;12.442;2024-01-30T04:27:40;10.75;;;2.55;;
69502;SDS011;56704;54.242;12.442;2024-01-30T04:30:07;7.82;;;3.05;;
69502;SDS011;56704;54.242;12.442;2024-01-30T04:32:35;9.03;;;3.10;;
69502;SDS011;56704;54.242;12.442;2024-01-30T04:35:00;7.13;;;3.13;;
69502;SDS011;56704;54.242;12.442;2024-01-30T04:37:27;10.02;;;3.58;;
69502;SDS011;56704;54.242;12.442;2024-01-30T04:39:55;7.93;;;3.40;;
69502;SDS011;56704;54.242;12.442;2024-01-30T04:42:22;7.50;;;3.17;;
69502;SDS011;56704;54.242;12.442;2024-01-30T04:44:49;7.73;;;3.10;;
69502;SDS011;56704;54.242;12.442;2024-01-30T04:47:15;11.07;;;3.47;;
69502;SDS011;56704;54.242;12.442;2024-01-30T04:49:42;8.27;;;2.78;;
69502;SDS011;56704;54.242;12.442;2024-01-30T04:52:09;8.35;;;3.28;;
69502;SDS011;56704;54.242;12.442;2024-01-30T04:54:35;7.75;;;3.00;;
69502;SDS011;56704;54.242;12.442;2024-01-30T04:57:03;7.83;;;3.07;;
69502;SDS011;56704;54.242;12.442;2024-01-30T04:59:34;10.13;;;3.30;;
69502;SDS011;56704;54.242;12.442;2024-01-30T05:02:01;7.25;;;3.17;;
69502;SDS011;56704;54.242;12.442;2024-01-30T05:04:27;7.55;;;3.40;;
69502;SDS011;56704;54.242;12.442;2024-01-30T05:06:54;8.85;;;3.58;;
69502;SDS011;56704;54.242;12.442;2024-01-30T05:09:20;10.83;;;3.43;;
69502;SDS011;56704;54.242;12.442;2024-01-30T05:11:47;8.70;;;3.20;;
69502;SDS011;56704;54.242;12.442;2024-01-30T05:14:15;8.95;;;3.97;;
69502;SDS011;56704;54.242;12.442;2024-01-30T05:16:43;9.02;;;3.38;;
69502;SDS011;56704;54.242;12.442;2024-01-30T05:19:11;9.38;;;3.53;;
69502;SDS011;56704;54.242;12.442;2024-01-30T05:21:38;11.20;;;3.43;;
69502;SDS011;56704;54.242;12.442;2024-01-30T05:24:05;9.82;;;3.75;;
69502;SDS011;56704;54.242;12.442;2024-01-30T05:26:32;13.95;;;3.83;;
69502;SDS011;56704;54.242;12.442;2024-01-30T05:28:59;12.52;;;3.72;;
69502;SDS011;56704;54.242;12.442;2024-01-30T05:31:27;14.38;;;4.13;;
69502;SDS011;56704;54.242;12.442;2024-01-30T05:33:54;18.00;;;4.30;;
69502;SDS011;56704;54.242;12.442;2024-01-30T05:36:20;15.65;;;4.30;;
69502;SDS011;56704;54.242;12.442;2024-01-30T05:38:47;15.35;;;4.88;;
69502;SDS011;56704;54.242;12.442;2024-01-30T05:41:13;22.90;;;5.60;;
69502;SDS011;56704;54.242;12.442;2024-01-30T05:43:43;19.60;;;5.13;;
69502;SDS011;56704;54.242;12.442;2024-01-30T05:46:10;24.50;;;6.33;;
69502;SDS011;56704;54.242;12.442;2024-01-30T05:48:38;25.17;;;6.28;;
69502;SDS011;56704;54.242;12.442;2024-01-30T05:51:06;20.65;;;5.25;;
69502;SDS011;56704;54.242;12.442;2024-01-30T05:53:33;21.85;;;5.65;;
69502;SDS011;56704;54.242;12.442;2024-01-30T05:56:00;26.00;;;7.22;;
69502;SDS011;56704;54.242;12.442;2024-01-30T05:58:27;32.10;;;7.43;;
69502;SDS011;56704;54.242;12.442;2024-01-30T06:00:54;27.63;;;6.38;;
69502;SDS011;56704;54.242;12.442;2024-01-30T06:03:20;22.95;;;5.78;;
69502;SDS011;56704;54.242;12.442;2024-01-30T06:05:48;24.75;;;6.60;;
69502;SDS011;56704;54.242;12.442;2024-01-30T06:08:15;23.13;;;6.03;;
69502;SDS011;56704;54.242;12.442;2024-01-30T06:10:42;21.83;;;6.50;;
69502;SDS011;56704;54.242;12.442;2024-01-30T06:13:09;20.00;;;5.90;;
69502;SDS011;56704;54.242;12.442;2024-01-30T06:15:36;17.95;;;5.43;;
69502;SDS011;56704;54.242;12.442;2024-01-30T06:18:03;19.17;;;5.55;;
69502;SDS011;56704;54.242;12.442;2024-01-30T06:20:30;22.83;;;5.72;;
69502;SDS011;56704;54.242;12.442;2024-01-30T06:22:58;17.63;;;5.50;;
69502;SDS011;56704;54.242;12.442;2024-01-30T06:25:24;20.80;;;5.78;;
69502;SDS011;56704;54.242;12.442;2024-01-30T06:27:51;16.00;;;5.53;;
69502;SDS011;56704;54.242;12.442;2024-01-30T06:30:18;16.48;;;5.80;;
69502;SDS011;56704;54.242;12.442;2024-01-30T06:32:44;16.65;;;4.57;;
69502;SDS011;56704;54.242;12.442;2024-01-30T06:35:11;15.60;;;5.10;;
69502;SDS011;56704;54.242;12.442;2024-01-30T06:37:38;11.93;;;4.53;;
69502;SDS011;56704;54.242;12.442;2024-01-30T06:40:06;15.15;;;4.90;;
69502;SDS011;56704;54.242;12.442;2024-01-30T06:42:34;15.07;;;4.80;;
69502;SDS011;56704;54.242;12.442;2024-01-30T06:45:00;14.32;;;4.60;;
69502;SDS011;56704;54.242;12.442;2024-01-30T06:47:27;17.93;;;5.33;;
69502;SDS011;56704;54.242;12.442;2024-01-30T06:49:53;21.77;;;5.43;;
69502;SDS011;56704;54.242;12.442;2024-01-30T06:52:20;22.00;;;5.22;;
69502;SDS011;56704;54.242;12.442;2024-01-30T06:54:49;19.92;;;5.18;;
69502;SDS011;56704;54.242;12.442;2024-01-30T06:57:17;23.33;;;5.72;;
69502;SDS011;56704;54.242;12.442;2024-01-30T06:59:43;15.07;;;4.67;;
69502;SDS011;56704;54.242;12.442;2024-01-30T07:02:10;15.70;;;5.07;;
69502;SDS011;56704;54.242;12.442;2024-01-30T07:04:36;16.05;;;5.07;;
69502;SDS011;56704;54.242;12.442;2024-01-30T07:07:04;15.30;;;4.75;;
69502;SDS011;56704;54.242;12.442;2024-01-30T07:09:30;19.10;;;6.15;;
69502;SDS011;56704;54.242;12.442;2024-01-30T07:11:57;22.53;;;5.87;;
69502;SDS011;56704;54.242;12.442;2024-01-30T07:14:25;21.52;;;5.80;;
69502;SDS011;56704;54.242;12.442;2024-01-30T07:16:52;13.27;;;5.10;;
69502;SDS011;56704;54.242;12.442;2024-01-30T07:19:18;15.10;;;4.60;;
69502;SDS011;56704;54.242;12.442;2024-01-30T07:21:45;11.13;;;4.40;;
69502;SDS011;56704;54.242;12.442;2024-01-30T07:24:11;10.07;;;3.67;;
69502;SDS011;56704;54.242;12.442;2024-01-30T07:26:38;12.52;;;4.25;;
69502;SDS011;56704;54.242;12.442;2024-01-30T07:29:05;11.52;;;3.90;;
69502;SDS011;56704;54.242;12.442;2024-01-30T07:31:32;11.50;;;4.03;;
69502;SDS011;56704;54.242;12.442;2024-01-30T07:33:59;11.68;;;4.13;;
69502;SDS011;56704;54.242;12.442;2024-01-30T07:36:26;10.70;;;4.10;;
69502;SDS011;56704;54.242;12.442;2024-01-30T07:38:52;10.98;;;3.95;;
69502;SDS011;56704;54.242;12.442;2024-01-30T07:41:19;9.63;;;4.07;;
69502;SDS011;56704;54.242;12.442;2024-01-30T07:43:46;9.23;;;3.65;;
69502;SDS011;56704;54.242;12.442;2024-01-30T07:46:13;9.35;;;3.95;;
69502;SDS011;56704;54.242;12.442;2024-01-30T07:48:41;9.30;;;3.87;;
69502;SDS011;56704;54.242;12.442;2024-01-30T07:51:08;8.70;;;3.95;;
69502;SDS011;56704;54.242;12.442;2024-01-30T07:53:34;10.65;;;4.15;;
69502;SDS011;56704;54.242;12.442;2024-01-30T07:56:01;8.50;;;3.60;;
69502;SDS011;56704;54.242;12.442;2024-01-30T07:58:27;10.57;;;3.92;;
69502;SDS011;56704;54.242;12.442;2024-01-30T08:00:54;7.97;;;3.43;;
69502;SDS011;56704;54.242;12.442;2024-01-30T08:03:23;8.60;;;3.85;;
69502;SDS011;56704;54.242;12.442;2024-01-30T08:05:51;9.30;;;3.95;;
69502;SDS011;56704;54.242;12.442;2024-01-30T08:08:18;9.55;;;3.55;;
69502;SDS011;56704;54.242;12.442;2024-01-30T08:10:44;9.77;;;4.10;;
69502;SDS011;56704;54.242;12.442;2024-01-30T08:13:11;8.37;;;3.63;;
69502;SDS011;56704;54.242;12.442;2024-01-30T08:15:37;10.23;;;3.60;;
69502;SDS011;56704;54.242;12.442;2024-01-30T08:18:04;9.18;;;4.07;;
69502;SDS011;56704;54.242;12.442;2024-01-30T08:20:32;10.07;;;3.95;;
69502;SDS011;56704;54.242;12.442;2024-01-30T08:23:00;10.18;;;4.35;;
69502;SDS011;56704;54.242;12.442;2024-01-30T08:25:26;9.30;;;3.90;;
69502;SDS011;56704;54.242;12.442;2024-01-30T08:27:53;9.05;;;4.22;;
69502;SDS011;56704;54.242;12.442;2024-01-30T08:30:19;10.20;;;4.00;;
69502;SDS011;56704;54.242;12.442;2024-01-30T08:32:46;9.05;;;4.28;;
69502;SDS011;56704;54.242;12.442;2024-01-30T08:35:13;10.07;;;4.35;;
69502;SDS011;56704;54.242;12.442;2024-01-30T08:37:41;8.43;;;3.70;;
69502;SDS011;56704;54.242;12.442;2024-01-30T08:40:09;10.60;;;4.20;;
69502;SDS011;56704;54.242;12.442;2024-01-30T08:42:36;10.23;;;4.03;;
69502;SDS011;56704;54.242;12.442;2024-01-30T08:45:03;9.40;;;3.90;;
69502;SDS011;56704;54.242;12.442;2024-01-30T08:47:30;10.32;;;4.00;;
69502;SDS011;56704;54.242;12.442;2024-01-30T08:49:58;9.43;;;3.60;;
69502;SDS011;56704;54.242;12.442;2024-01-30T08:52:25;10.27;;;3.95;;
69502;SDS011;56704;54.242;12.442;2024-01-30T08:54:51;11.57;;;4.13;;
69502;SDS011;56704;54.242;12.442;2024-01-30T08:57:19;9.25;;;3.97;;
69502;SDS011;56704;54.242;12.442;2024-01-30T08:59:46;9.95;;;4.40;;
69502;SDS011;56704;54.242;12.442;2024-01-30T09:02:13;8.63;;;3.83;;
69502;SDS011;56704;54.242;12.442;2024-01-30T09:04:41;9.85;;;4.05;;
69502;SDS011;56704;54.242;12.442;2024-01-30T09:07:08;11.45;;;4.53;;
69502;SDS011;56704;54.242;12.442;2024-01-30T09:09:35;11.55;;;4.07;;
69502;SDS011;56704;54.242;12.442;2024-01-30T09:12:04;8.40;;;3.83;;
69502;SDS011;56704;54.242;12.442;2024-01-30T09:14:35;10.93;;;4.27;;
69502;SDS011;56704;54.242;12.442;2024-01-30T09:17:02;10.05;;;4.50;;
69502;SDS011;56704;54.242;12.442;2024-01-30T09:19:29;9.45;;;4.38;;
69502;SDS011;56704;54.242;12.442;2024-01-30T09:21:56;10.52;;;4.50;;
69502;SDS011;56704;54.242;12.442;2024-01-30T09:24:23;10.10;;;4.95;;
69502;SDS011;56704;54.242;12.442;2024-01-30T09:26:49;11.83;;;4.87;;
69502;SDS011;56704;54.242;12.442;2024-01-30T09:29:16;9.23;;;4.22;;
69502;SDS011;56704;54.242;12.442;2024-01-30T09:31:44;11.20;;;4.45;;
69502;SDS011;56704;54.242;12.442;2024-01-30T09:34:11;12.25;;;5.13;;
69502;SDS011;56704;54.242;12.442;2024-01-30T09:36:38;9.57;;;4.68;;
69502;SDS011;56704;54.242;12.442;2024-01-30T09:39:05;11.83;;;4.73;;
69502;SDS011;56704;54.242;12.442;2024-01-30T09:41:32;11.98;;;5.28;;
69502;SDS011;56704;54.242;12.442;2024-01-30T09:44:07;12.77;;;5.13;;
69502;SDS011;56704;54.242;12.442;2024-01-30T09:46:35;12.43;;;5.10;;
69502;SDS011;56704;54.242;12.442;2024-01-30T09:49:03;12.00;;;5.65;;
69502;SDS011;56704;54.242;12.442;2024-01-30T09:51:30;12.40;;;4.77;;
69502;SDS011;56704;54.242;12.442;2024-01-30T09:53:57;11.02;;;5.07;;
69502;SDS011;56704;54.242;12.442;2024-01-30T09:56:24;11.23;;;5.25;;
69502;SDS011;56704;54.242;12.442;2024-01-30T09:58:50;11.05;;;5.38;;
69502;SDS011;56704;54.242;12.442;2024-01-30T10:01:17;11.07;;;5.35;;
69502;SDS011;56704;54.242;12.442;2024-01-30T10:03:44;10.97;;;5.40;;
69502;SDS011;56704;54.242;12.442;2024-01-30T10:06:12;11.80;;;5.43;;
69502;SDS011;56704;54.242;12.442;2024-01-30T10:08:42;12.23;;;5.95;;
69502;SDS011;56704;54.242;12.442;2024-01-30T10:11:09;12.95;;;5.30;;
69502;SDS011;56704;54.242;12.442;2024-01-30T10:13:35;11.60;;;5.28;;
69502;SDS011;56704;54.242;12.442;2024-01-30T10:16:02;11.37;;;5.07;;
69502;SDS011;56704;54.242;12.442;2024-01-30T10:18:31;13.80;;;5.32;;
69502;SDS011;56704;54.242;12.442;2024-01-30T10:20:58;12.40;;;5.05;;
69502;SDS011;56704;54.242;12.442;2024-01-30T10:23:26;11.13;;;5.10;;
69502;SDS011;56704;54.242;12.442;2024-01-30T10:25:53;13.60;;;5.40;;
69502;SDS011;56704;54.242;12.442;2024-01-30T10:28:20;12.17;;;5.67;;
69502;SDS011;56704;54.242;12.442;2024-01-30T10:30:56;10.52;;;4.90;;
69502;SDS011;56704;54.242;12.442;2024-01-30T10:33:25;10.93;;;5.70;;
69502;SDS011;56704;54.242;12.442;2024-01-30T10:35:52;12.90;;;6.05;;
69502;SDS011;56704;54.242;12.442;2024-01-30T10:38:20;10.57;;;5.20;;
69502;SDS011;56704;54.242;12.442;2024-01-30T10:40:51;11.03;;;5.50;;
69502;SDS011;56704;54.242;12.442;2024-01-30T10:43:22;12.38;;;5.63;;
69502;SDS011;56704;54.242;12.442;2024-01-30T10:45:50;11.07;;;5.13;;
69502;SDS011;56704;54.242;12.442;2024-01-30T10:48:21;12.20;;;5.45;;
69502;SDS011;56704;54.242;12.442;2024-01-30T10:50:52;13.13;;;6.10;;
69502;SDS011;56704;54.242;12.442;2024-01-30T10:53:21;12.13;;;6.13;;
69502;SDS011;56704;54.242;12.442;2024-01-30T10:55:48;10.32;;;5.10;;
69502;SDS011;56704;54.242;12.442;2024-01-30T10:58:20;11.60;;;5.72;;
69502;SDS011;56704;54.242;12.442;2024-01-30T11:00:47;13.57;;;5.97;;
69502;SDS011;56704;54.242;12.442;2024-01-30T11:03:16;12.20;;;6.20;;
69502;SDS011;56704;54.242;12.442;2024-01-30T11:05:48;14.57;;;5.77;;
69502;SDS011;56704;54.242;12.442;2024-01-30T11:08:22;14.73;;;5.00;;
69502;SDS011;56704;54.242;12.442;2024-01-30T11:10:49;12.15;;;6.18;;
69502;SDS011;56704;54.242;12.442;2024-01-30T11:13:21;14.30;;;5.93;;
69502;SDS011;56704;54.242;12.442;2024-01-30T11:15:48;11.25;;;5.63;;
69502;SDS011;56704;54.242;12.442;2024-01-30T11:18:22;12.77;;;5.87;;
69502;SDS011;56704;54.242;12.442;2024-01-30T11:20:49;11.43;;;5.70;;
69502;SDS011;56704;54.242;12.442;2024-01-30T11:23:15;13.57;;;5.85;;
69502;SDS011;56704;54.242;12.442;2024-01-30T11:25:43;10.77;;;5.50;;
69502;SDS011;56704;54.242;12.442;2024-01-30T11:28:12;11.05;;;5.15;;
69502;SDS011;56704;54.242;12.442;2024-01-30T11:30:42;11.30;;;5.23;;
69502;SDS011;56704;54.242;12.442;2024-01-30T11:33:09;11.27;;;5.50;;
69502;SDS011;56704;54.242;12.442;2024-01-30T11:35:37;11.75;;;5.88;;
69502;SDS011;56704;54.242;12.442;2024-01-30T11:38:05;11.88;;;5.32;;
69502;SDS011;56704;54.242;12.442;2024-01-30T11:40:33;13.05;;;5.70;;
69502;SDS011;56704;54.242;12.442;2024-01-30T11:45:29;11.05;;;6.15;;
69502;SDS011;56704;54.242;12.442;2024-01-30T11:47:57;11.75;;;5.57;;
69502;SDS011;56704;54.242;12.442;2024-01-30T11:50:25;11.50;;;5.40;;
69502;SDS011;56704;54.242;12.442;2024-01-30T11:52:51;9.65;;;5.07;;
69502;SDS011;56704;54.242;12.442;2024-01-30T11:55:18;12.13;;;5.83;;
69502;SDS011;56704;54.242;12.442;2024-01-30T11:57:45;12.55;;;5.80;;
69502;SDS011;56704;54.242;12.442;2024-01-30T12:00:15;11.48;;;6.05;;
69502;SDS011;56704;54.242;12.442;2024-01-30T12:02:44;11.35;;;5.07;;
69502;SDS011;56704;54.242;12.442;2024-01-30T12:05:16;14.50;;;5.95;;
69502;SDS011;56704;54.242;12.442;2024-01-30T12:07:45;13.17;;;6.03;;
69502;SDS011;56704;54.242;12.442;2024-01-30T12:10:12;12.23;;;5.55;;
69502;SDS011;56704;54.242;12.442;2024-01-30T12:12:39;11.43;;;6.40;;
69502;SDS011;56704;54.242;12.442;2024-01-30T12:15:08;12.95;;;5.97;;
69502;SDS011;56704;54.242;12.442;2024-01-30T12:17:35;12.32;;;5.53;;
69502;SDS011;56704;54.242;12.442;2024-01-30T12:20:04;11.57;;;5.63;;
69502;SDS011;56704;54.242;12.442;2024-01-30T12:22:33;11.25;;;6.13;;
69502;SDS011;56704;54.242;12.442;2024-01-30T12:25:02;12.15;;;5.05;;
69502;SDS011;56704;54.242;12.442;2024-01-30T12:27:30;12.45;;;6.13;;
69502;SDS011;56704;54.242;12.442;2024-01-30T12:29:57;9.88;;;5.15;;
69502;SDS011;56704;54.242;12.442;2024-01-30T12:32:24;11.53;;;5.50;;
69502;SDS011;56704;54.242;12.442;2024-01-30T12:34:50;13.45;;;5.75;;
69502;SDS011;56704;54.242;12.442;2024-01-30T12:37:20;12.90;;;6.03;;
69502;SDS011;56704;54.242;12.442;2024-01-30T12:39:49;13.52;;;6.13;;
69502;SDS011;56704;54.242;12.442;2024-01-30T12:42:18;13.50;;;6.03;;
69502;SDS011;56704;54.242;12.442;2024-01-30T12:44:45;12.33;;;6.07;;
69502;SDS011;56704;54.242;12.442;2024-01-30T12:47:12;11.23;;;6.13;;
69502;SDS011;56704;54.242;12.442;2024-01-30T12:49:41;11.88;;;5.55;;
69502;SDS011;56704;54.242;12.442;2024-01-30T12:52:08;13.77;;;6.70;;
69502;SDS011;56704;54.242;12.442;2024-01-30T12:54:34;13.05;;;6.15;;
69502;SDS011;56704;54.242;12.442;2024-01-30T12:57:02;12.03;;;6.13;;
69502;SDS011;56704;54.242;12.442;2024-01-30T12:59:29;13.43;;;6.47;;
69502;SDS011;56704;54.242;12.442;2024-01-30T13:01:56;13.95;;;6.22;;
69502;SDS011;56704;54.242;12.442;2024-01-30T13:04:23;12.00;;;6.10;;
69502;SDS011;56704;54.242;12.442;2024-01-30T13:06:49;12.32;;;5.70;;
69502;SDS011;56704;54.242;12.442;2024-01-30T13:09:16;12.43;;;5.53;;
69502;SDS011;56704;54.242;12.442;2024-01-30T13:11:43;11.95;;;5.90;;
69502;SDS011;56704;54.242;12.442;2024-01-30T13:14:11;11.88;;;6.00;;
69502;SDS011;56704;54.242;12.442;2024-01-30T13:16:37;10.95;;;5.32;;
69502;SDS011;56704;54.242;12.442;2024-01-30T13:19:04;10.70;;;5.13;;
69502;SDS011;56704;54.242;12.442;2024-01-30T13:21:31;12.90;;;5.40;;
69502;SDS011;56704;54.242;12.442;2024-01-30T13:23:57;11.50;;;5.63;;
69502;SDS011;56704;54.242;12.442;2024-01-30T13:26:24;10.65;;;5.32;;
69502;SDS011;56704;54.242;12.442;2024-01-30T13:28:51;10.40;;;5.50;;
69502;SDS011;56704;54.242;12.442;2024-01-30T13:31:19;11.10;;;5.30;;
69502;SDS011;56704;54.242;12.442;2024-01-30T13:33:46;11.03;;;5.00;;
69502;SDS011;56704;54.242;12.442;2024-01-30T13:36:13;14.70;;;6.25;;
69502;SDS011;56704;54.242;12.442;2024-01-30T13:38:40;12.60;;;5.95;;
69502;SDS011;56704;54.242;12.442;2024-01-30T13:41:07;13.45;;;6.35;;
69502;SDS011;56704;54.242;12.442;2024-01-30T13:43:34;10.77;;;5.88;;
69502;SDS011;56704;54.242;12.442;2024-01-30T13:46:00;10.43;;;4.90;;
69502;SDS011;56704;54.242;12.442;2024-01-30T13:48:29;12.25;;;5.43;;
69502;SDS011;56704;54.242;12.442;2024-01-30T13:50:57;11.27;;;5.70;;
69502;SDS011;56704;54.242;12.442;2024-01-30T13:56:54;12.77;;;6.07;;
69502;SDS011;56704;54.242;12.442;2024-01-30T13:59:58;10.90;;;5.57;;
69502;SDS011;56704;54.242;12.442;2024-01-30T14:15:52;12.33;;;5.50;;
69502;SDS011;56704;54.242;12.442;2024-01-30T14:22:04;14.23;;;6.30;;
69502;SDS011;56704;54.242;12.442;2024-01-30T14:24:31;13.50;;;5.88;;
69502;SDS011;56704;54.242;12.442;2024-01-30T14:26:57;14.95;;;6.35;;
69502;SDS011;56704;54.242;12.442;2024-01-30T14:29:25;11.20;;;5.47;;
69502;SDS011;56704;54.242;12.442;2024-01-30T14:31:53;12.20;;;5.80;;
69502;SDS011;56704;54.242;12.442;2024-01-30T14:34:20;13.93;;;6.57;;
69502;SDS011;56704;54.242;12.442;2024-01-30T14:36:46;15.35;;;6.35;;
69502;SDS011;56704;54.242;12.442;2024-01-30T14:39:13;11.45;;;5.90;;
69502;SDS011;56704;54.242;12.442;2024-01-30T14:41:40;12.40;;;5.70;;
69502;SDS011;56704;54.242;12.442;2024-01-30T14:44:06;13.48;;;5.53;;
69502;SDS011;56704;54.242;12.442;2024-01-30T14:46:34;12.75;;;5.85;;
69502;SDS011;56704;54.242;12.442;2024-01-30T14:49:03;17.25;;;6.07;;
69502;SDS011;56704;54.242;12.442;2024-01-30T14:51:32;12.55;;;6.05;;